createdAt,value
2023-03-23T15:58:18.494Z,1.97
2023-03-23T15:58:50.685Z,2.70
2023-03-23T15:59:23.486Z,3.25
2023-03-23T15:59:55.423Z,2.75
2023-03-23T16:00:28.524Z,2.58
2023-03-23T16:01:05.594Z,3.25
2023-03-23T16:01:40.141Z,2.63
2023-03-23T16:02:21.050Z,2.40
2023-03-23T16:02:56.540Z,2.60
2023-03-23T16:03:33.760Z,4.75
2023-03-23T16:04:10.319Z,2.60
2023-03-23T16:04:45.278Z,3.78
2023-03-23T16:05:18.870Z,3.70
2023-03-23T16:05:50.952Z,5.13
2023-03-23T16:06:26.546Z,2.15
2023-03-23T16:06:59.099Z,2.53
2023-03-23T16:07:32.097Z,4.68
2023-03-23T16:08:04.236Z,4.35
2023-03-23T16:08:40.720Z,3.35
2023-03-23T16:09:15.258Z,3.53
2023-03-23T16:09:47.126Z,2.10
2023-03-23T16:10:23.239Z,3.08
2023-03-23T16:10:55.171Z,2.67
2023-03-23T16:11:29.013Z,4.97
2023-03-23T16:12:02.046Z,4.65
2023-03-23T16:12:34.046Z,4.28
2023-03-23T16:13:07.148Z,4.10
2023-03-23T16:13:39.556Z,2.20
2023-03-23T16:14:13.066Z,2.80
2023-03-23T16:14:44.865Z,2.55
2023-03-23T16:15:17.497Z,2.53
2023-03-23T16:15:51.517Z,3.20
2023-03-23T16:16:27.123Z,3.33
2023-03-23T16:16:59.024Z,3.22
2023-03-23T16:17:33.177Z,3.45
2023-03-23T16:18:05.366Z,4.75
2023-03-23T16:18:37.238Z,2.30
2023-03-23T16:19:13.350Z,2.65
2023-03-23T16:19:45.404Z,3.85
2023-03-23T16:20:21.247Z,6.78
2023-03-23T16:20:53.041Z,3.25
2023-03-23T16:21:25.457Z,3.08
2023-03-23T16:21:58.579Z,4.13
2023-03-23T16:22:30.432Z,2.13
2023-03-23T16:23:03.350Z,2.70
2023-03-23T16:23:35.238Z,2.25
2023-03-23T16:24:08.165Z,2.67
2023-03-23T16:24:41.178Z,2.05
2023-03-23T16:25:14.050Z,2.30
2023-03-23T16:25:45.950Z,2.40
2023-03-23T16:26:19.117Z,2.40
2023-03-23T16:26:50.947Z,5.10
2023-03-23T16:27:23.737Z,4.32
2023-03-23T16:27:55.604Z,2.30
2023-03-23T16:28:27.524Z,3.45
2023-03-23T16:29:12.763Z,3.03
2023-03-23T16:30:02.085Z,2.40
2023-03-23T16:30:36.564Z,2.80
2023-03-23T16:31:08.863Z,3.95
2023-03-23T16:31:40.882Z,2.58
2023-03-23T16:32:13.835Z,4.43
2023-03-23T16:32:46.930Z,2.90
2023-03-23T16:33:20.166Z,6.07
2023-03-23T16:33:52.035Z,3.85
2023-03-23T16:34:25.693Z,3.38
2023-03-23T16:34:57.492Z,3.10
2023-03-23T16:35:31.190Z,3.10
2023-03-23T16:36:03.806Z,2.47
2023-03-23T16:36:36.876Z,3.00
2023-03-23T16:37:11.827Z,4.95
2023-03-23T16:37:47.291Z,4.40
2023-03-23T16:38:20.082Z,5.80
2023-03-23T16:38:54.268Z,3.10
2023-03-23T16:39:27.703Z,2.97
2023-03-23T16:39:59.711Z,2.70
2023-03-23T16:40:33.135Z,4.55
2023-03-23T16:41:05.479Z,1.85
2023-03-23T16:41:37.592Z,2.92
2023-03-23T16:42:10.472Z,2.55
2023-03-23T16:42:42.660Z,3.00
2023-03-23T16:43:14.538Z,2.83
2023-03-23T16:43:47.367Z,2.33
2023-03-23T16:44:19.298Z,4.30
2023-03-23T16:44:51.188Z,2.85
2023-03-23T16:45:24.834Z,3.58
2023-03-23T16:45:57.983Z,2.65
2023-03-23T16:46:30.244Z,2.40
2023-03-23T16:47:03.059Z,2.90
2023-03-23T16:47:35.396Z,4.03
2023-03-23T16:48:08.027Z,4.18
2023-03-23T16:48:41.253Z,3.30
2023-03-23T16:49:13.108Z,2.45
2023-03-23T16:49:46.462Z,2.35
2023-03-23T16:50:20.228Z,2.83
2023-03-23T16:50:54.433Z,2.33
2023-03-23T16:51:27.187Z,2.38
2023-03-23T16:51:59.031Z,2.97
2023-03-23T16:52:30.797Z,2.30
2023-03-23T16:53:04.563Z,2.80
2023-03-23T16:53:36.712Z,3.25
2023-03-23T16:54:09.492Z,4.25
2023-03-23T16:54:41.333Z,5.63
2023-03-23T16:55:14.716Z,3.05
2023-03-23T16:55:48.329Z,2.33
2023-03-23T16:56:20.272Z,5.40
2023-03-23T16:56:52.407Z,4.50
2023-03-23T16:57:26.134Z,5.43
2023-03-23T16:58:12.871Z,2.95
2023-03-23T16:58:48.811Z,3.28
2023-03-23T16:59:20.709Z,3.00
2023-03-23T16:59:52.700Z,2.88
2023-03-23T17:00:26.829Z,5.05
2023-03-23T17:00:58.672Z,5.22
2023-03-23T17:01:30.611Z,2.90
2023-03-23T17:02:04.083Z,2.88
2023-03-23T17:02:36.759Z,2.90
2023-03-23T17:03:09.057Z,3.00
2023-03-23T17:03:43.807Z,3.17
2023-03-23T17:04:15.951Z,3.00
2023-03-23T17:04:49.073Z,3.38
2023-03-23T17:05:22.674Z,3.08
2023-03-23T17:05:54.516Z,2.60
2023-03-23T17:06:27.326Z,2.85
2023-03-23T17:06:59.747Z,2.83
2023-03-23T17:07:31.583Z,3.00
2023-03-23T17:08:05.798Z,2.90
2023-03-23T17:08:37.631Z,3.28
2023-03-23T17:09:09.771Z,3.42
2023-03-23T17:09:42.742Z,4.35
2023-03-23T17:10:15.423Z,3.40
2023-03-23T17:10:47.750Z,2.85
2023-03-23T17:11:20.685Z,2.55
2023-03-23T17:11:52.692Z,4.55
2023-03-23T17:12:25.587Z,3.45
2023-03-23T17:12:57.770Z,3.38
2023-03-23T17:13:30.548Z,2.75
2023-03-23T17:14:02.421Z,3.92
2023-03-23T17:14:34.386Z,3.17
2023-03-23T17:15:09.011Z,5.18
2023-03-23T17:15:45.872Z,4.28
2023-03-23T17:16:19.701Z,3.90
2023-03-23T17:16:51.505Z,3.53
2023-03-23T17:17:24.108Z,3.80
2023-03-23T17:17:56.960Z,6.93
2023-03-23T17:18:29.180Z,4.50
2023-03-23T17:19:02.034Z,3.15
2023-03-23T17:19:34.122Z,4.78
2023-03-23T17:20:09.836Z,3.30
2023-03-23T17:20:43.152Z,3.00
2023-03-23T17:21:14.963Z,5.90
2023-03-23T17:21:46.783Z,4.65
2023-03-23T17:22:20.317Z,2.92
2023-03-23T17:22:52.155Z,4.22
2023-03-23T17:23:25.444Z,4.25
2023-03-23T17:23:57.224Z,3.10
2023-03-23T17:24:29.117Z,3.25
2023-03-23T17:25:02.042Z,3.40
2023-03-23T17:25:33.896Z,3.58
2023-03-23T17:26:06.605Z,3.10
2023-03-23T17:26:39.417Z,3.40
2023-03-23T17:27:11.410Z,3.20
2023-03-23T17:27:43.271Z,3.03
2023-03-23T17:28:18.122Z,7.68
2023-03-23T17:28:51.524Z,3.25
2023-03-23T17:29:24.619Z,3.20
2023-03-23T17:29:56.475Z,4.63
2023-03-23T17:30:28.735Z,3.75
2023-03-23T17:31:01.567Z,5.60
2023-03-23T17:31:33.810Z,5.53
2023-03-23T17:32:06.246Z,3.83
2023-03-23T17:32:39.335Z,5.68
2023-03-23T17:33:11.991Z,3.92
2023-03-23T17:33:43.845Z,4.40
2023-03-23T17:34:18.747Z,3.40
2023-03-23T17:34:51.545Z,4.03
2023-03-23T17:35:24.762Z,3.90
2023-03-23T17:35:57.569Z,4.50
2023-03-23T17:36:29.652Z,5.75
2023-03-23T17:37:01.633Z,939.33
2023-03-23T17:37:36.008Z,1999.90
2023-03-23T17:38:07.945Z,1999.90
2023-03-23T17:38:39.904Z,1999.90
2023-03-23T17:39:12.710Z,1992.60
2023-03-23T17:39:45.754Z,1999.90
2023-03-23T17:40:18.883Z,1711.82
2023-03-23T17:40:57.940Z,1999.90
2023-03-23T17:41:29.820Z,569.92
2023-03-23T17:42:02.126Z,1361.40
2023-03-23T17:42:35.140Z,867.35
2023-03-23T17:43:06.971Z,787.75
2023-03-23T17:43:40.489Z,778.65
2023-03-23T17:44:13.340Z,761.67
2023-03-23T17:44:45.244Z,693.08
2023-03-23T17:45:18.140Z,497.98
2023-03-23T17:45:50.126Z,675.47
2023-03-23T17:46:22.068Z,525.15
2023-03-23T17:46:56.252Z,771.45
2023-03-23T17:47:28.120Z,343.35
2023-03-23T17:48:01.297Z,150.85
2023-03-23T17:48:33.586Z,516.17
2023-03-23T17:49:05.677Z,200.80
2023-03-23T17:49:38.736Z,163.75
2023-03-23T17:50:11.271Z,168.27
2023-03-23T17:50:48.893Z,198.07
2023-03-23T17:51:21.863Z,173.35
2023-03-23T17:51:53.842Z,125.82
2023-03-23T17:52:26.003Z,338.77
2023-03-23T17:53:00.400Z,111.35
2023-03-23T17:53:34.921Z,295.85
2023-03-23T17:54:07.872Z,309.30
2023-03-23T17:54:39.683Z,137.40
2023-03-23T17:55:12.071Z,141.38
2023-03-23T17:55:45.177Z,95.47
2023-03-23T17:56:17.462Z,81.32
2023-03-23T17:56:50.045Z,109.38
2023-03-23T17:57:22.828Z,97.07
2023-03-23T17:57:54.653Z,98.65
2023-03-23T17:58:26.920Z,90.05
2023-03-23T17:58:59.690Z,81.50
2023-03-23T17:59:31.816Z,55.13
2023-03-23T18:00:07.225Z,52.92
2023-03-23T18:00:40.201Z,67.20
2023-03-23T18:01:12.078Z,165.65
2023-03-23T18:01:47.465Z,41.78
2023-03-23T18:02:19.328Z,18.73
2023-03-23T18:02:51.256Z,29.92
2023-03-23T18:03:25.321Z,23.33
2023-03-23T18:03:57.160Z,31.20
2023-03-23T18:04:28.990Z,20.98
2023-03-23T18:05:01.793Z,19.60
2023-03-23T18:05:34.567Z,19.58
2023-03-23T18:06:09.276Z,18.60
2023-03-23T18:06:42.060Z,18.27
2023-03-23T18:07:14.482Z,13.52
2023-03-23T18:07:47.249Z,37.45
2023-03-23T18:08:19.143Z,11.02
2023-03-23T18:08:50.987Z,13.00
2023-03-23T18:09:25.011Z,13.07
2023-03-23T18:09:58.409Z,11.27
2023-03-23T18:10:30.497Z,10.60
2023-03-23T18:11:03.965Z,10.00
2023-03-23T18:11:35.962Z,7.78
2023-03-23T18:12:07.897Z,9.10
2023-03-23T18:12:40.854Z,13.63
2023-03-23T18:13:12.661Z,7.88
2023-03-23T18:13:44.472Z,6.07
2023-03-23T18:14:17.361Z,8.95
2023-03-23T18:14:49.262Z,11.20
2023-03-23T18:15:22.296Z,8.25
2023-03-23T18:16:00.677Z,5.85
2023-03-23T18:16:32.553Z,4.95
2023-03-23T18:17:05.530Z,5.28
2023-03-23T18:17:37.506Z,5.60
2023-03-23T18:18:10.369Z,6.07
2023-03-23T18:18:42.185Z,4.95
2023-03-23T18:19:14.023Z,6.22
2023-03-23T18:19:47.236Z,5.18
2023-03-23T18:20:19.140Z,8.13
2023-03-23T18:20:55.319Z,4.95
2023-03-23T18:21:29.467Z,5.07
2023-03-23T18:22:01.324Z,4.80
2023-03-23T18:22:33.163Z,5.25
2023-03-23T18:23:06.816Z,9.70
2023-03-23T18:23:49.064Z,4.30
2023-03-23T18:24:26.016Z,6.65
2023-03-23T18:24:58.348Z,5.25
2023-03-23T18:25:31.234Z,5.10
2023-03-23T18:26:03.970Z,11.30
2023-03-23T18:26:36.228Z,6.18
2023-03-23T18:27:09.027Z,4.38
2023-03-23T18:27:40.869Z,6.75
2023-03-23T18:28:12.699Z,5.03
2023-03-23T18:28:45.462Z,5.00
2023-03-23T18:29:17.267Z,5.47
2023-03-23T18:29:49.118Z,5.28
2023-03-23T18:30:22.084Z,7.25
2023-03-23T18:30:53.930Z,6.00
2023-03-23T18:31:26.197Z,4.75
2023-03-23T18:31:59.288Z,4.93
2023-03-23T18:32:31.328Z,5.07
2023-03-23T18:33:04.459Z,7.85
2023-03-23T18:33:37.535Z,4.30
2023-03-23T18:34:10.445Z,5.30
2023-03-23T18:34:42.918Z,6.10
2023-03-23T18:35:14.725Z,5.78
2023-03-23T18:35:47.937Z,3.40
2023-03-23T18:36:21.972Z,8.95
2023-03-23T18:36:56.406Z,8.23
2023-03-23T18:37:28.209Z,4.45
2023-03-23T18:38:00.262Z,3.50
2023-03-23T18:38:33.485Z,6.20
2023-03-23T18:39:06.077Z,9.52
2023-03-23T18:39:39.320Z,6.18
2023-03-23T18:40:11.555Z,8.27
2023-03-23T18:40:43.971Z,5.55
2023-03-23T18:41:18.392Z,4.60
2023-03-23T18:41:50.346Z,5.88
2023-03-23T18:42:22.292Z,11.75
2023-03-23T18:42:55.371Z,7.72
2023-03-23T18:43:27.626Z,8.60
2023-03-23T18:44:00.524Z,6.22
2023-03-23T18:44:32.324Z,4.70
2023-03-23T18:45:05.757Z,5.47
2023-03-23T18:45:37.722Z,8.40
2023-03-23T18:46:10.702Z,6.43
2023-03-23T18:46:42.665Z,5.82
2023-03-23T18:47:14.507Z,5.20
2023-03-23T18:47:47.289Z,5.40
2023-03-23T18:48:19.586Z,5.15
2023-03-23T18:48:51.425Z,6.43
2023-03-23T18:49:24.458Z,6.38
2023-03-23T18:49:56.624Z,6.00
2023-03-23T18:50:28.536Z,8.25
2023-03-23T18:51:02.337Z,5.22
2023-03-23T18:51:34.206Z,5.60
2023-03-23T18:52:08.718Z,4.72
2023-03-23T18:52:40.599Z,5.40
2023-03-23T18:53:14.655Z,4.72
2023-03-23T18:53:47.516Z,5.82
2023-03-23T18:54:19.336Z,5.40
2023-03-23T18:54:51.205Z,5.65
2023-03-23T18:55:24.735Z,8.15
2023-03-23T18:56:04.698Z,5.90
2023-03-23T18:56:37.548Z,5.60
2023-03-23T18:57:09.423Z,6.47
2023-03-23T18:57:41.380Z,5.78
2023-03-23T18:58:15.316Z,6.20
2023-03-23T18:58:47.479Z,5.40
2023-03-23T18:59:23.806Z,7.43
2023-03-23T18:59:55.876Z,5.70
2023-03-23T19:00:29.518Z,4.78
2023-03-23T19:01:04.265Z,6.97
2023-03-23T19:01:37.617Z,5.00
2023-03-23T19:02:11.477Z,4.93
2023-03-23T19:02:43.408Z,5.35
2023-03-23T19:03:16.943Z,4.03
2023-03-23T19:03:48.892Z,4.93
2023-03-23T19:04:22.300Z,4.38
2023-03-23T19:04:54.210Z,5.85
2023-03-23T19:05:26.532Z,4.80
2023-03-23T19:06:00.232Z,5.28
2023-03-23T19:06:33.230Z,5.63
2023-03-23T19:07:07.784Z,6.13
2023-03-23T19:07:39.662Z,7.28
2023-03-23T19:08:11.736Z,17.35
2023-03-23T19:08:45.682Z,21.15
2023-03-23T19:09:18.810Z,10.80
2023-03-23T19:09:51.641Z,24.88
2023-03-23T19:10:23.764Z,13.85
2023-03-23T19:10:58.357Z,18.33
2023-03-23T19:11:31.408Z,12.05
2023-03-23T19:12:03.246Z,7.95
2023-03-23T19:12:35.191Z,8.30
2023-03-23T19:13:08.699Z,6.75
2023-03-23T19:13:50.325Z,6.97
2023-03-23T19:14:31.526Z,6.75
2023-03-23T19:15:03.695Z,6.03
2023-03-23T19:15:38.745Z,6.20
2023-03-23T19:16:12.231Z,7.78
2023-03-23T19:16:44.049Z,7.25
2023-03-23T19:17:16.411Z,5.88
2023-03-23T19:17:55.542Z,6.15
2023-03-23T19:18:27.803Z,5.82
2023-03-23T19:19:02.074Z,5.82
2023-03-23T19:19:34.234Z,6.07
2023-03-23T19:20:14.646Z,5.30
2023-03-23T19:21:09.285Z,7.53
2023-03-23T19:21:47.276Z,6.25
2023-03-23T19:22:20.551Z,6.25
2023-03-23T19:22:52.540Z,10.38
2023-03-23T19:23:25.891Z,5.82
2023-03-23T19:23:57.706Z,6.68
2023-03-23T19:24:30.253Z,4.50
2023-03-23T19:25:03.541Z,4.68
2023-03-23T19:25:35.551Z,7.15
2023-03-23T19:26:08.378Z,4.75
2023-03-23T19:26:42.840Z,5.97
2023-03-23T19:27:15.529Z,6.80
2023-03-23T19:28:33.719Z,5.82
2023-03-23T19:29:26.698Z,4.85
2023-03-23T19:29:59.084Z,7.22
2023-03-23T19:30:31.881Z,4.40
2023-03-23T19:31:04.196Z,4.32
2023-03-23T19:31:36.260Z,4.63
2023-03-23T19:32:09.342Z,6.00
2023-03-23T19:32:41.138Z,5.13
2023-03-23T19:33:13.617Z,5.10
2023-03-23T19:33:46.457Z,5.35
2023-03-23T19:34:19.352Z,9.73
2023-03-23T19:34:52.167Z,4.75
2023-03-23T19:35:25.857Z,4.47
2023-03-23T19:36:09.319Z,4.40
2023-03-23T19:36:51.372Z,4.38
2023-03-23T19:37:28.253Z,5.13
2023-03-23T19:38:00.451Z,3.90
2023-03-23T19:38:32.255Z,5.35
2023-03-23T19:39:06.357Z,3.95
2023-03-23T19:39:38.933Z,4.40
2023-03-23T19:40:31.305Z,4.60
2023-03-23T19:41:06.187Z,4.85
2023-03-23T19:41:38.544Z,4.22
2023-03-23T19:42:10.964Z,5.22
2023-03-23T19:42:43.733Z,4.50
2023-03-23T19:43:15.540Z,4.30
2023-03-23T19:43:47.555Z,3.97
2023-03-23T19:44:21.089Z,7.05
2023-03-23T19:44:52.888Z,4.35
2023-03-23T19:45:25.730Z,4.68
2023-03-23T19:45:57.566Z,5.72
2023-03-23T19:46:31.471Z,7.00
2023-03-23T19:47:03.733Z,5.40
2023-03-23T19:47:36.211Z,6.15
2023-03-23T19:48:10.153Z,7.70
2023-03-23T19:48:42.486Z,5.30
2023-03-23T19:49:15.509Z,6.53
2023-03-23T19:49:47.558Z,5.20
2023-03-23T19:50:19.341Z,6.32
2023-03-23T19:50:53.404Z,5.93
2023-03-23T19:51:26.712Z,6.30
2023-03-23T19:52:06.370Z,5.57
2023-03-23T19:52:43.494Z,6.35
2023-03-23T19:53:15.303Z,6.05
2023-03-23T19:53:48.321Z,7.13
2023-03-23T19:54:20.182Z,4.90
2023-03-23T19:54:53.244Z,5.95
2023-03-23T19:55:25.267Z,6.15
2023-03-23T19:55:57.459Z,4.93
2023-03-23T19:56:30.838Z,4.80
2023-03-23T19:57:03.666Z,5.82
2023-03-23T19:57:35.574Z,5.60
2023-03-23T19:58:09.471Z,5.10
2023-03-23T19:58:42.212Z,5.95
2023-03-23T19:59:16.637Z,5.70
2023-03-23T19:59:48.526Z,7.88
2023-03-23T20:00:20.470Z,5.65
2023-03-23T20:00:53.417Z,5.07
2023-03-23T20:01:25.286Z,5.80
2023-03-23T20:01:58.145Z,6.53
2023-03-23T20:02:30.051Z,5.32
2023-03-23T20:03:02.118Z,5.93
2023-03-23T20:03:35.009Z,4.53
2023-03-23T20:04:07.174Z,7.90
2023-03-23T20:04:40.467Z,7.20
2023-03-23T20:05:12.739Z,4.45
2023-03-23T20:05:46.878Z,5.10
2023-03-23T20:06:20.955Z,5.75
2023-03-23T20:06:54.970Z,6.55
2023-03-23T20:07:27.757Z,5.13
2023-03-23T20:08:02.620Z,5.63
2023-03-23T20:08:35.725Z,6.95
2023-03-23T20:09:07.715Z,9.52
2023-03-23T20:09:40.756Z,6.00
2023-03-23T20:10:12.747Z,5.55
2023-03-23T20:10:44.861Z,7.55
2023-03-23T20:11:19.680Z,6.55
2023-03-23T20:11:51.466Z,5.50
2023-03-23T20:12:24.352Z,7.40
2023-03-23T20:12:56.126Z,4.90
2023-03-23T20:13:27.898Z,5.68
2023-03-23T20:14:01.355Z,7.30
2023-03-23T20:14:33.862Z,11.82
2023-03-23T20:15:07.818Z,6.22
2023-03-23T20:15:39.648Z,5.05
2023-03-23T20:16:12.589Z,5.70
2023-03-23T20:16:44.394Z,6.30
2023-03-23T20:17:16.288Z,6.00
2023-03-23T20:18:21.614Z,4.97
2023-03-23T20:18:54.362Z,5.55
2023-03-23T20:19:28.623Z,5.22
2023-03-23T20:20:01.546Z,4.15
2023-03-23T20:20:36.502Z,4.40
2023-03-23T20:21:10.317Z,5.03
2023-03-23T20:21:43.331Z,6.40
2023-03-23T20:22:15.364Z,4.68
2023-03-23T20:22:49.920Z,4.50
2023-03-23T20:23:24.280Z,4.40
2023-03-23T20:23:58.750Z,5.35
2023-03-23T20:24:30.681Z,4.75
2023-03-23T20:25:03.178Z,5.22
2023-03-23T20:25:36.947Z,5.15
2023-03-23T20:26:12.339Z,4.65
2023-03-23T20:26:45.782Z,5.15
2023-03-23T20:27:17.739Z,6.68
2023-03-23T20:27:49.677Z,5.25
2023-03-23T20:28:22.842Z,5.40
2023-03-23T20:28:54.884Z,7.55
2023-03-23T20:29:31.362Z,4.93
2023-03-23T20:30:04.837Z,5.95
2023-03-23T20:30:36.943Z,6.07
2023-03-23T20:31:17.026Z,4.82
2023-03-23T20:31:54.806Z,6.38
2023-03-23T20:32:29.005Z,5.82
2023-03-23T20:33:01.113Z,5.70
2023-03-23T20:33:34.371Z,5.63
2023-03-23T20:34:08.450Z,5.32
2023-03-23T20:34:40.280Z,6.47
2023-03-23T20:35:14.529Z,6.10
2023-03-23T20:35:46.563Z,6.28
2023-03-23T20:36:19.869Z,4.57
2023-03-23T20:36:54.526Z,5.38
2023-03-23T20:37:26.939Z,5.25
2023-03-23T20:38:00.158Z,5.43
2023-03-23T20:38:35.314Z,7.07
2023-03-23T20:39:10.412Z,5.18
2023-03-23T20:39:43.349Z,4.90
2023-03-23T20:40:15.221Z,5.00
2023-03-23T20:40:48.039Z,5.40
2023-03-23T20:41:20.634Z,6.57
2023-03-23T20:41:54.493Z,4.90
2023-03-23T20:42:29.359Z,5.60
2023-03-23T20:43:03.543Z,5.07
2023-03-23T20:43:36.676Z,6.30
2023-03-23T20:44:13.722Z,5.38
2023-03-23T20:44:45.996Z,5.68
2023-03-23T20:45:18.480Z,5.22
2023-03-23T20:45:51.358Z,4.60
2023-03-23T20:46:23.454Z,6.20
2023-03-23T20:46:56.176Z,5.60
2023-03-23T20:47:29.479Z,6.00
2023-03-23T20:48:01.966Z,6.75
2023-03-23T20:48:35.440Z,6.07
2023-03-23T20:49:08.237Z,6.95
2023-03-23T20:49:40.374Z,6.55
2023-03-23T20:50:13.684Z,7.30
2023-03-23T20:50:47.150Z,10.25
2023-03-23T20:51:20.876Z,7.38
2023-03-23T20:51:53.545Z,5.63
2023-03-23T20:52:27.231Z,6.00
2023-03-23T20:52:59.043Z,6.20
2023-03-23T20:53:34.230Z,7.93
2023-03-23T20:54:07.311Z,6.70
2023-03-23T20:54:40.192Z,5.28
2023-03-23T20:55:15.179Z,4.50
2023-03-23T20:55:47.238Z,5.45
2023-03-23T20:56:19.926Z,5.05
2023-03-23T20:56:56.008Z,5.13
2023-03-23T20:57:28.673Z,7.70
2023-03-23T20:58:00.877Z,5.65
2023-03-23T20:58:34.531Z,4.95
2023-03-23T20:59:06.375Z,5.32
2023-03-23T20:59:38.258Z,5.40
2023-03-23T21:00:16.102Z,4.60
2023-03-23T21:00:50.771Z,5.05
2023-03-23T21:01:22.654Z,4.97
2023-03-23T21:01:55.597Z,5.00
2023-03-23T21:02:29.740Z,4.43
2023-03-23T21:03:01.730Z,5.88
2023-03-23T21:03:39.312Z,4.35
2023-03-23T21:04:15.662Z,4.63
2023-03-23T21:04:48.802Z,4.47
2023-03-23T21:05:22.366Z,4.90
2023-03-23T21:05:54.222Z,5.60
2023-03-23T21:06:28.692Z,5.07
2023-03-23T21:07:02.191Z,5.55
2023-03-23T21:07:33.995Z,5.88
2023-03-23T21:08:06.731Z,7.22
2023-03-23T21:08:42.052Z,11.25
2023-03-23T21:09:14.117Z,5.65
2023-03-23T21:09:45.937Z,8.30
2023-03-23T21:10:18.741Z,6.00
2023-03-23T21:10:50.995Z,6.43
2023-03-23T21:11:25.432Z,8.07
2023-03-23T21:11:58.977Z,8.65
2023-03-23T21:12:30.767Z,7.05
2023-03-23T21:13:02.605Z,5.82
2023-03-23T21:13:35.485Z,4.80
2023-03-23T21:14:08.016Z,5.50
2023-03-23T21:14:41.108Z,4.97
2023-03-23T21:15:13.942Z,5.15
2023-03-23T21:15:46.082Z,4.38
2023-03-23T21:16:18.873Z,4.55
2023-03-23T21:16:51.976Z,4.50
2023-03-23T21:17:24.048Z,4.07
2023-03-23T21:17:56.358Z,3.78
2023-03-23T21:18:29.321Z,4.82
2023-03-23T21:19:02.554Z,3.80
2023-03-23T21:19:34.824Z,5.15
2023-03-23T21:20:10.939Z,4.07
2023-03-23T21:20:43.531Z,6.38
2023-03-23T21:21:18.131Z,4.07
2023-03-23T21:21:56.364Z,6.30
2023-03-23T21:22:28.956Z,4.85
2023-03-23T21:23:01.752Z,4.45
2023-03-23T21:23:35.254Z,4.95
2023-03-23T21:24:10.279Z,4.18
2023-03-23T21:24:43.045Z,4.85
2023-03-23T21:25:15.131Z,4.22
2023-03-23T21:25:47.636Z,3.83
2023-03-23T21:26:22.413Z,5.35
2023-03-23T21:26:55.063Z,3.85
2023-03-23T21:27:27.920Z,4.25
2023-03-23T21:27:59.715Z,7.30
2023-03-23T21:28:31.720Z,5.18
2023-03-23T21:29:09.618Z,4.03
2023-03-23T21:29:41.411Z,5.22
2023-03-23T21:30:14.438Z,4.88
2023-03-23T21:30:48.302Z,5.57
2023-03-23T21:31:23.058Z,4.85
2023-03-23T21:32:07.776Z,7.10
2023-03-23T21:32:40.409Z,5.15
2023-03-23T21:33:12.933Z,4.57
2023-03-23T21:33:46.168Z,5.13
2023-03-23T21:34:18.019Z,4.82
2023-03-23T21:34:50.758Z,7.55
2023-03-23T21:35:22.819Z,3.92
2023-03-23T21:35:54.748Z,6.07
2023-03-23T21:36:27.776Z,4.85
2023-03-23T21:36:59.571Z,5.00
2023-03-23T21:37:33.187Z,4.85
2023-03-23T21:38:05.037Z,5.32
2023-03-23T21:38:38.236Z,5.28
2023-03-23T21:39:12.713Z,6.00
2023-03-23T21:39:45.386Z,4.95
2023-03-23T21:40:18.633Z,8.52
2023-03-23T21:40:51.456Z,8.38
2023-03-23T21:41:23.721Z,5.50
2023-03-23T21:41:59.117Z,5.97
2023-03-23T21:42:30.997Z,4.60
2023-03-23T21:43:02.830Z,5.45
2023-03-23T21:43:36.023Z,4.70
2023-03-23T21:44:10.604Z,5.38
2023-03-23T21:44:43.467Z,7.30
2023-03-23T21:45:18.522Z,11.00
2023-03-23T21:45:50.334Z,7.05
2023-03-23T21:46:23.454Z,4.90
2023-03-23T21:46:55.341Z,4.68
2023-03-23T21:47:30.141Z,6.35
2023-03-23T21:48:03.004Z,5.40
2023-03-23T21:48:38.355Z,5.60
2023-03-23T21:49:13.891Z,6.35
2023-03-23T21:49:46.684Z,5.53
2023-03-23T21:50:21.874Z,5.07
2023-03-23T21:50:54.040Z,5.88
2023-03-23T21:51:28.208Z,5.00
2023-03-23T21:52:00.302Z,5.43
2023-03-23T21:52:33.279Z,6.30
2023-03-23T21:53:06.826Z,4.70
2023-03-23T21:53:38.781Z,5.07
2023-03-23T21:54:13.068Z,5.25
2023-03-23T21:54:45.525Z,5.63
2023-03-23T21:55:17.493Z,5.40
2023-03-23T21:55:52.295Z,6.40
2023-03-23T21:56:26.105Z,4.78
2023-03-23T21:56:59.637Z,5.25
2023-03-23T21:57:32.258Z,7.25
2023-03-23T21:58:05.568Z,5.00
2023-03-23T21:58:39.096Z,5.38
2023-03-23T21:59:10.903Z,5.03
2023-03-23T21:59:43.750Z,5.10
2023-03-23T22:00:17.141Z,6.07
2023-03-23T22:00:53.740Z,4.72
2023-03-23T22:01:28.147Z,5.80
2023-03-23T22:02:02.289Z,4.75
2023-03-23T22:02:34.334Z,5.15
2023-03-23T22:03:07.394Z,5.25
2023-03-23T22:03:40.159Z,5.00
2023-03-23T22:04:13.064Z,4.40
2023-03-23T22:04:45.129Z,6.63
2023-03-23T22:05:17.285Z,5.28
2023-03-23T22:05:54.151Z,4.65
2023-03-23T22:06:28.273Z,4.95
2023-03-23T22:07:01.159Z,5.30
2023-03-23T22:07:33.123Z,4.85
2023-03-23T22:08:06.881Z,5.88
2023-03-23T22:08:40.227Z,6.53
2023-03-23T22:09:15.241Z,5.28
2023-03-23T22:09:47.152Z,5.75
2023-03-23T22:10:19.418Z,7.63
2023-03-23T22:11:00.765Z,6.38
2023-03-23T22:11:34.959Z,4.85
2023-03-23T22:12:07.646Z,5.88
2023-03-23T22:12:40.229Z,5.03
2023-03-23T22:13:13.083Z,5.78
2023-03-23T22:13:45.326Z,4.82
2023-03-23T22:14:17.180Z,4.75
2023-03-23T22:14:50.252Z,6.03
2023-03-23T22:15:27.641Z,4.80
2023-03-23T22:16:01.792Z,5.40
2023-03-23T22:16:34.775Z,5.80
2023-03-23T22:17:07.272Z,5.18
2023-03-23T22:17:39.870Z,13.82
2023-03-23T22:18:12.822Z,12.05
2023-03-23T22:18:46.120Z,11.73
2023-03-23T22:19:19.799Z,10.27
2023-03-23T22:19:51.714Z,7.25
2023-03-23T22:20:23.672Z,8.27
2023-03-23T22:20:58.947Z,6.03
2023-03-23T22:21:31.143Z,8.30
2023-03-23T22:22:04.035Z,6.70
2023-03-23T22:22:36.890Z,6.50
2023-03-23T22:23:08.989Z,6.80
2023-03-23T22:23:41.638Z,5.20
2023-03-23T22:24:15.841Z,4.78
2023-03-23T22:24:47.715Z,3.75
2023-03-23T22:25:19.646Z,5.10
2023-03-23T22:25:52.812Z,5.15
2023-03-23T22:26:27.042Z,4.70
2023-03-23T22:27:00.603Z,4.32
2023-03-23T22:27:32.644Z,5.35
2023-03-23T22:28:05.579Z,4.97
2023-03-23T22:28:39.988Z,4.00
2023-03-23T22:29:12.299Z,3.92
2023-03-23T22:29:44.173Z,5.70
2023-03-23T22:30:17.646Z,5.45
2023-03-23T22:30:49.494Z,4.00
2023-03-23T22:31:24.894Z,4.05
2023-03-23T22:31:56.783Z,5.25
2023-03-23T22:32:28.760Z,4.75
2023-03-23T22:33:01.730Z,4.85
2023-03-23T22:33:34.537Z,5.00
2023-03-23T22:34:07.969Z,4.57
2023-03-23T22:34:39.946Z,4.75
2023-03-23T22:35:12.466Z,4.72
2023-03-23T22:35:45.147Z,5.40
2023-03-23T22:36:19.689Z,5.85
2023-03-23T22:36:51.595Z,4.72
2023-03-23T22:37:23.594Z,5.28
2023-03-23T22:37:56.600Z,4.32
2023-03-23T22:38:28.463Z,5.85
2023-03-23T22:39:00.945Z,5.18
2023-03-23T22:39:35.575Z,5.68
2023-03-23T22:40:10.050Z,4.63
2023-03-23T22:40:42.448Z,5.13
2023-03-23T22:41:17.813Z,4.50
2023-03-23T22:41:49.760Z,5.20
2023-03-23T22:42:22.655Z,5.22
2023-03-23T22:42:54.674Z,5.20
2023-03-23T22:43:27.009Z,5.18
2023-03-23T22:43:59.897Z,4.65
2023-03-23T22:44:31.808Z,5.38
2023-03-23T22:45:04.054Z,5.32
2023-03-23T22:45:36.969Z,8.15
2023-03-23T22:46:08.992Z,4.93
2023-03-23T22:46:41.647Z,4.50
2023-03-23T22:47:14.534Z,4.55
2023-03-23T22:47:46.408Z,5.40
2023-03-23T22:48:18.519Z,5.18
2023-03-23T22:48:51.456Z,4.90
2023-03-23T22:49:23.322Z,5.22
2023-03-23T22:49:55.235Z,4.85
2023-03-23T22:50:28.487Z,4.95
2023-03-23T22:51:00.487Z,6.45
2023-03-23T22:51:32.431Z,4.55
2023-03-23T22:52:05.653Z,4.55
2023-03-23T22:52:37.974Z,4.30
2023-03-23T22:53:09.874Z,5.50
2023-03-23T22:53:42.960Z,5.30
2023-03-23T22:54:14.878Z,5.65
2023-03-23T22:54:48.212Z,4.55
2023-03-23T22:55:21.091Z,5.47
2023-03-23T22:55:55.442Z,4.10
2023-03-23T22:56:27.441Z,4.90
2023-03-23T22:57:00.387Z,5.05
2023-03-23T22:57:32.529Z,4.70
2023-03-23T22:58:04.381Z,4.63
2023-03-23T22:58:37.576Z,3.75
2023-03-23T22:59:10.944Z,4.50
2023-03-23T22:59:42.823Z,13.75
2023-03-23T23:00:15.905Z,5.10
2023-03-23T23:00:50.901Z,4.90
2023-03-23T23:01:23.713Z,4.65
2023-03-23T23:01:57.296Z,4.63
2023-03-23T23:02:29.231Z,4.57
2023-03-23T23:03:01.297Z,4.90
2023-03-23T23:03:34.806Z,4.30
2023-03-23T23:04:07.170Z,4.60
2023-03-23T23:04:39.133Z,5.47
2023-03-23T23:05:13.070Z,5.22
2023-03-23T23:05:48.191Z,4.93
2023-03-23T23:06:21.099Z,4.75
2023-03-23T23:07:03.191Z,4.05
2023-03-23T23:07:38.599Z,4.55
2023-03-23T23:08:13.286Z,5.03
2023-03-23T23:08:48.305Z,4.80
2023-03-23T23:09:22.044Z,4.80
2023-03-23T23:09:55.291Z,3.90
2023-03-23T23:10:28.364Z,4.32
2023-03-23T23:11:02.923Z,4.78
2023-03-23T23:11:35.988Z,4.90
2023-03-23T23:12:08.249Z,4.80
2023-03-23T23:12:42.226Z,4.40
2023-03-23T23:13:15.162Z,4.55
2023-03-23T23:13:47.395Z,4.95
2023-03-23T23:14:20.316Z,5.80
2023-03-23T23:14:52.190Z,5.38
2023-03-23T23:15:24.322Z,5.90
2023-03-23T23:15:59.139Z,7.70
2023-03-23T23:16:31.189Z,5.35
2023-03-23T23:17:03.566Z,4.72
2023-03-23T23:17:38.417Z,4.97
2023-03-23T23:18:10.968Z,4.97
2023-03-23T23:18:43.691Z,7.68
2023-03-23T23:19:16.538Z,4.07
2023-03-23T23:19:48.437Z,6.30
2023-03-23T23:20:20.374Z,4.25